createdAt,value
2022-11-14T00:02:56.136Z,15.40
2022-11-14T00:05:47.849Z,14.80
2022-11-14T00:08:38.846Z,16.80
2022-11-14T00:11:29.571Z,16.90
2022-11-14T00:14:20.693Z,16.50
2022-11-14T00:17:11.934Z,16.30
2022-11-14T00:20:31.030Z,16.40
2022-11-14T00:23:22.446Z,16.60
2022-11-14T00:26:13.091Z,17.80
2022-11-14T00:29:04.664Z,15.60
2022-11-14T00:31:55.949Z,15.90
2022-11-14T00:34:46.916Z,19.00
2022-11-14T00:37:37.836Z,17.60
2022-11-14T00:40:29.027Z,16.00
2022-11-14T00:43:19.932Z,15.50
2022-11-14T00:46:12.831Z,17.90
2022-11-14T00:49:04.191Z,16.80
2022-11-14T00:51:55.093Z,18.50
2022-11-14T00:54:46.023Z,16.00
2022-11-14T00:57:37.629Z,19.00
2022-11-14T01:00:28.685Z,15.80
2022-11-14T01:03:19.745Z,15.40
2022-11-14T01:06:14.653Z,15.70
2022-11-14T01:09:05.775Z,15.80
2022-11-14T01:11:57.940Z,17.60
2022-11-14T01:14:48.686Z,15.80
2022-11-14T01:17:40.805Z,16.20
2022-11-14T01:20:32.155Z,17.30
2022-11-14T01:23:23.244Z,19.00
2022-11-14T01:26:15.612Z,17.00
2022-11-14T01:29:06.410Z,18.50
2022-11-14T01:31:57.466Z,18.40
2022-11-14T01:34:49.233Z,18.40
2022-11-14T01:37:40.074Z,19.40
2022-11-14T01:40:35.132Z,19.30
2022-11-14T01:44:02.956Z,18.40
2022-11-14T01:47:53.926Z,20.30
2022-11-14T01:50:51.576Z,18.10
2022-11-14T01:53:44.311Z,19.00
2022-11-14T01:56:38.595Z,18.30
2022-11-14T01:59:33.148Z,18.60
2022-11-14T02:02:26.182Z,16.80
2022-11-14T02:05:19.206Z,17.60
2022-11-14T02:08:14.669Z,18.90
2022-11-14T02:11:19.183Z,21.40
2022-11-14T02:14:40.426Z,18.10
2022-11-14T02:17:38.506Z,18.70
2022-11-14T02:20:58.737Z,19.10
2022-11-14T02:24:17.062Z,18.60
2022-11-14T02:27:12.064Z,18.00
2022-11-14T02:30:09.040Z,17.50
2022-11-14T02:33:11.326Z,18.70
2022-11-14T02:36:04.217Z,20.90
2022-11-14T02:38:57.098Z,18.30
2022-11-14T02:41:48.115Z,14.80
2022-11-14T02:44:41.652Z,13.90
2022-11-14T02:47:32.188Z,13.60
2022-11-14T02:50:23.193Z,12.40
2022-11-14T02:53:13.964Z,13.80
2022-11-14T02:56:05.260Z,13.80
2022-11-14T02:58:59.277Z,14.40
2022-11-14T03:01:50.138Z,15.20
2022-11-14T03:05:09.399Z,13.30
2022-11-14T03:08:00.094Z,13.70
2022-11-14T03:10:50.943Z,15.30
2022-11-14T03:13:41.909Z,12.50
2022-11-14T03:16:32.929Z,14.70
2022-11-14T03:19:26.588Z,13.40
2022-11-14T03:22:17.382Z,13.30
2022-11-14T03:25:09.396Z,12.30
2022-11-14T03:28:00.143Z,14.40
2022-11-14T03:30:50.952Z,15.30
2022-11-14T03:33:48.149Z,14.70
2022-11-14T03:36:39.701Z,14.10
2022-11-14T03:39:30.792Z,15.10
2022-11-14T03:42:21.485Z,14.80
2022-11-14T03:45:13.529Z,14.60
2022-11-14T03:48:04.048Z,16.90
2022-11-14T03:50:54.763Z,17.70
2022-11-14T03:53:45.704Z,17.70
2022-11-14T03:56:37.765Z,16.00
2022-11-14T03:59:31.158Z,17.90
2022-11-14T04:02:22.134Z,18.20
2022-11-14T04:05:13.710Z,17.60
2022-11-14T04:08:07.425Z,25.60
2022-11-14T04:10:59.905Z,18.40
2022-11-14T04:13:52.570Z,17.70
2022-11-14T04:16:46.692Z,19.30
2022-11-14T04:20:05.306Z,15.30
2022-11-14T04:22:57.407Z,14.90
2022-11-14T04:25:48.973Z,19.50
2022-11-14T04:28:39.908Z,18.50
2022-11-14T04:31:38.811Z,17.90
2022-11-14T04:34:29.677Z,18.20
2022-11-14T04:37:20.734Z,18.60
2022-11-14T04:40:13.201Z,19.30
2022-11-14T04:43:07.990Z,16.80
2022-11-14T04:45:59.194Z,20.30
2022-11-14T04:48:50.019Z,20.80
2022-11-14T04:51:40.868Z,19.60
2022-11-14T04:54:31.742Z,19.50
2022-11-14T04:57:22.829Z,21.90
2022-11-14T05:00:16.381Z,22.10
2022-11-14T05:03:07.665Z,20.20
2022-11-14T05:06:03.103Z,20.00
2022-11-14T05:08:54.222Z,22.10
2022-11-14T05:11:45.055Z,21.50
2022-11-14T05:14:43.406Z,21.80
2022-11-14T05:17:48.538Z,21.60
2022-11-14T05:20:39.724Z,24.40
2022-11-14T05:23:33.805Z,23.60
2022-11-14T05:26:24.731Z,24.90
2022-11-14T05:29:15.307Z,24.60
2022-11-14T05:32:06.637Z,24.80
2022-11-14T05:34:58.097Z,22.90
2022-11-14T05:37:59.990Z,25.10
2022-11-14T05:40:50.952Z,25.00
2022-11-14T05:43:42.523Z,24.30
2022-11-14T05:46:33.583Z,23.00
2022-11-14T05:49:24.353Z,24.20
2022-11-14T05:52:15.368Z,23.50
2022-11-14T05:55:07.213Z,21.10
2022-11-14T05:58:00.708Z,20.00
2022-11-14T06:00:54.977Z,19.20
2022-11-14T06:03:52.486Z,20.40
2022-11-14T06:06:43.287Z,22.80
2022-11-14T06:09:34.219Z,20.00
2022-11-14T06:12:25.192Z,20.60
2022-11-14T06:15:16.128Z,21.30
2022-11-14T06:18:07.171Z,22.60
2022-11-14T06:21:02.204Z,21.40
2022-11-14T06:23:53.591Z,24.40
2022-11-14T06:27:11.863Z,24.80
2022-11-14T06:30:56.721Z,28.30
2022-11-14T06:33:23.137Z,22.50
2022-11-14T06:36:15.450Z,24.00
2022-11-14T06:39:06.357Z,23.20
2022-11-14T06:41:57.168Z,23.20
2022-11-14T06:44:48.431Z,21.80
2022-11-14T06:47:39.572Z,23.90
2022-11-14T06:50:39.515Z,24.40
2022-11-14T06:53:34.362Z,22.00
2022-11-14T06:56:25.568Z,23.50
2022-11-14T06:59:16.180Z,27.30
2022-11-14T07:02:07.321Z,26.30
2022-11-14T07:04:58.632Z,23.80
2022-11-14T07:07:49.625Z,22.80
2022-11-14T07:10:40.849Z,24.10
2022-11-14T07:13:32.440Z,26.40
2022-11-14T07:16:24.975Z,24.40
2022-11-14T07:19:16.069Z,22.90
2022-11-14T07:22:07.365Z,24.10
2022-11-14T07:25:12.391Z,27.10
2022-11-14T07:28:03.397Z,22.90
2022-11-14T07:30:56.877Z,24.70
2022-11-14T07:33:48.928Z,26.50
2022-11-14T07:36:39.955Z,26.50
2022-11-14T07:39:30.979Z,26.60
2022-11-14T07:42:22.149Z,26.90
2022-11-14T07:45:13.944Z,27.50
2022-11-14T07:48:05.153Z,29.60
2022-11-14T07:50:58.971Z,28.80
2022-11-14T07:53:55.616Z,31.30
2022-11-14T07:56:48.780Z,31.40
2022-11-14T07:59:40.026Z,30.90
2022-11-14T08:02:31.203Z,31.50
2022-11-14T08:05:22.658Z,30.40
2022-11-14T08:08:13.680Z,30.30
2022-11-14T08:11:05.136Z,32.40
2022-11-14T08:13:55.944Z,32.40
2022-11-14T08:16:47.224Z,33.60
2022-11-14T08:19:38.579Z,33.80
2022-11-14T08:22:31.203Z,33.90
2022-11-14T08:25:22.276Z,30.20
2022-11-14T08:28:13.186Z,31.60
2022-11-14T08:31:05.162Z,33.80
2022-11-14T08:33:56.217Z,35.60
2022-11-14T08:36:47.323Z,34.90
2022-11-14T08:39:38.583Z,34.20
2022-11-14T08:42:32.215Z,35.30
2022-11-14T08:45:23.038Z,36.90
2022-11-14T08:48:14.088Z,32.10
2022-11-14T08:51:08.114Z,33.90
2022-11-14T08:53:59.127Z,37.10
2022-11-14T08:56:52.224Z,38.70
2022-11-14T08:59:43.245Z,38.00
2022-11-14T09:02:34.397Z,36.50
2022-11-14T09:05:25.618Z,36.90
2022-11-14T09:08:16.583Z,36.40
2022-11-14T09:11:10.108Z,34.40
2022-11-14T09:14:02.829Z,32.90
2022-11-14T09:16:54.283Z,37.00
2022-11-14T09:19:50.505Z,35.10
2022-11-14T09:22:57.533Z,34.90
2022-11-14T09:26:02.554Z,35.80
2022-11-14T09:28:53.532Z,38.40
2022-11-14T09:31:46.015Z,38.40
2022-11-14T09:34:37.752Z,36.30
2022-11-14T09:37:29.378Z,38.10
2022-11-14T09:40:20.464Z,40.00
2022-11-14T09:43:26.578Z,37.70
2022-11-14T09:46:22.844Z,40.60
2022-11-14T09:49:21.529Z,42.90
2022-11-14T09:52:27.395Z,44.10
2022-11-14T09:55:22.417Z,40.40
2022-11-14T09:58:18.664Z,40.70
2022-11-14T10:01:18.770Z,38.60
2022-11-14T10:04:22.162Z,39.80
2022-11-14T10:07:26.692Z,37.70
2022-11-14T10:10:35.737Z,41.60
2022-11-14T10:13:47.085Z,41.00
2022-11-14T10:16:48.016Z,38.90
2022-11-14T10:19:48.987Z,40.80
2022-11-14T10:22:50.760Z,42.60
2022-11-14T10:25:51.434Z,38.50
2022-11-14T10:29:08.255Z,39.20
2022-11-14T10:32:15.715Z,40.40
2022-11-14T10:35:16.359Z,44.00
2022-11-14T10:38:16.072Z,105.90
2022-11-14T10:41:19.245Z,43.30
2022-11-14T10:44:24.492Z,43.10
2022-11-14T10:47:19.838Z,43.40
2022-11-14T10:50:20.968Z,41.00
2022-11-14T10:53:21.606Z,40.80
2022-11-14T10:56:14.976Z,44.00
2022-11-14T10:59:05.669Z,46.30
2022-11-14T11:02:00.146Z,40.00
2022-11-14T11:04:51.525Z,40.90
2022-11-14T11:08:42.025Z,38.20
2022-11-14T11:11:33.057Z,39.70
2022-11-14T11:14:24.429Z,41.00
2022-11-14T11:17:21.701Z,37.50
2022-11-14T11:20:34.383Z,34.60
2022-11-14T11:23:28.719Z,34.70
2022-11-14T11:26:24.301Z,34.20
2022-11-14T11:29:21.003Z,30.70
2022-11-14T11:32:12.329Z,30.00
2022-11-14T11:35:04.943Z,32.10
2022-11-14T11:38:02.864Z,31.90
2022-11-14T11:41:00.482Z,28.50
2022-11-14T11:43:59.085Z,33.00
2022-11-14T11:46:55.250Z,29.70
2022-11-14T11:49:53.801Z,30.50
2022-11-14T11:52:56.883Z,27.30
2022-11-14T11:56:07.006Z,28.00
2022-11-14T11:59:03.114Z,30.20
2022-11-14T12:01:55.611Z,28.30
2022-11-14T12:04:46.533Z,24.80
2022-11-14T12:07:43.035Z,25.90
2022-11-14T12:10:39.183Z,29.30
2022-11-14T12:14:01.635Z,26.00
2022-11-14T12:17:29.568Z,24.90
2022-11-14T12:20:49.075Z,26.10
2022-11-14T12:24:12.841Z,26.50
2022-11-14T12:27:18.863Z,24.70
2022-11-14T12:30:17.642Z,23.60
2022-11-14T12:33:17.326Z,25.80
2022-11-14T12:36:14.289Z,26.00
2022-11-14T12:39:21.868Z,35.70
2022-11-14T12:42:20.208Z,26.80
2022-11-14T12:45:42.289Z,27.00
2022-11-14T12:48:36.072Z,25.40
2022-11-14T12:51:51.697Z,24.10
2022-11-14T12:54:49.652Z,28.10
2022-11-14T12:57:50.552Z,24.80
2022-11-14T13:01:01.084Z,25.10
2022-11-14T13:04:05.905Z,23.80
2022-11-14T13:07:13.542Z,27.40
2022-11-14T13:10:16.344Z,26.00
2022-11-14T13:13:27.977Z,21.30
2022-11-14T13:16:51.351Z,24.10
2022-11-14T13:20:07.373Z,29.60
2022-11-14T13:23:00.226Z,24.90
2022-11-14T13:26:11.768Z,24.00
2022-11-14T13:29:03.027Z,24.30
2022-11-14T13:31:54.357Z,27.60
2022-11-14T13:35:00.201Z,26.60
2022-11-14T13:38:05.916Z,24.40
2022-11-14T13:41:07.034Z,25.60
2022-11-14T13:44:13.669Z,23.90
2022-11-14T13:47:28.796Z,21.60
2022-11-14T13:50:26.478Z,21.80
2022-11-14T13:53:24.037Z,23.20
2022-11-14T13:56:30.091Z,23.80
2022-11-14T13:59:52.411Z,19.40
2022-11-14T14:03:07.109Z,22.20
2022-11-14T14:06:15.144Z,23.60
2022-11-14T14:09:22.041Z,20.30
2022-11-14T14:12:40.854Z,20.60
2022-11-14T14:15:38.048Z,21.80
2022-11-14T14:18:43.941Z,22.00
2022-11-14T14:21:45.010Z,19.70
2022-11-14T14:24:48.871Z,22.50
2022-11-14T14:27:50.536Z,24.10
2022-11-14T14:30:42.142Z,25.00
2022-11-14T14:33:42.809Z,21.30
2022-11-14T14:36:33.635Z,23.60
2022-11-14T14:39:26.916Z,22.20
2022-11-14T14:42:20.705Z,21.30
2022-11-14T14:45:20.156Z,20.60
2022-11-14T14:48:16.394Z,19.80
2022-11-14T14:51:14.322Z,21.60
2022-11-14T14:54:08.373Z,17.30
2022-11-14T14:57:02.636Z,123.40
2022-11-14T15:00:03.490Z,82.20
2022-11-14T15:02:55.936Z,59.00
2022-11-14T15:05:47.775Z,35.20
2022-11-14T15:08:41.329Z,23.50
2022-11-14T15:11:33.378Z,25.70
2022-11-14T15:14:28.576Z,22.50
2022-11-14T15:17:20.160Z,18.90
2022-11-14T15:20:24.450Z,20.30
2022-11-14T15:23:25.560Z,19.70
2022-11-14T15:26:19.054Z,18.70
2022-11-14T15:29:20.235Z,17.80
2022-11-14T15:32:24.821Z,18.90
2022-11-14T15:35:29.436Z,19.20
2022-11-14T15:41:36.125Z,21.50
2022-11-14T15:44:35.230Z,22.60
2022-11-14T15:47:28.412Z,22.80
2022-11-14T15:50:29.713Z,18.80
2022-11-14T15:53:25.903Z,20.40
2022-11-14T15:56:16.888Z,22.20
2022-11-14T15:59:12.147Z,26.00
2022-11-14T16:02:14.490Z,22.10
2022-11-14T16:05:07.560Z,22.10
2022-11-14T16:07:58.644Z,42.10
2022-11-14T16:10:49.364Z,39.40
2022-11-14T16:13:40.361Z,29.30
2022-11-14T16:16:31.339Z,21.60
2022-11-14T16:19:25.528Z,23.00
2022-11-14T16:22:23.786Z,22.90
2022-11-14T16:25:20.845Z,25.70
2022-11-14T16:28:14.021Z,28.20
2022-11-14T16:31:04.928Z,27.80
2022-11-14T16:33:58.138Z,30.80
2022-11-14T16:36:51.037Z,29.50
2022-11-14T16:39:44.636Z,26.80
2022-11-14T16:42:35.653Z,32.90
2022-11-14T16:45:26.650Z,32.90
2022-11-14T16:48:17.313Z,36.30
2022-11-14T16:51:32.994Z,35.00
2022-11-14T16:54:20.692Z,34.40
2022-11-14T16:57:11.472Z,35.70
2022-11-14T17:00:02.489Z,64.00
2022-11-14T17:02:53.166Z,44.10
2022-11-14T17:05:48.359Z,42.60
2022-11-14T17:08:39.481Z,39.50
2022-11-14T17:11:30.386Z,36.70
2022-11-14T17:14:21.144Z,41.80
2022-11-14T17:17:12.038Z,38.30
2022-11-14T17:20:02.949Z,43.10
2022-11-14T17:22:53.733Z,34.00
2022-11-14T17:25:44.596Z,46.70
2022-11-14T17:28:38.558Z,44.30
2022-11-14T17:31:33.725Z,45.80
2022-11-14T17:34:27.544Z,36.60
2022-11-14T17:37:18.244Z,40.10
2022-11-14T17:40:15.568Z,43.90
2022-11-14T17:43:07.054Z,40.00
2022-11-14T17:45:58.524Z,44.00
2022-11-14T17:48:49.710Z,44.20
2022-11-14T17:51:40.609Z,51.10
2022-11-14T17:54:34.029Z,47.00
2022-11-14T17:57:24.943Z,51.80
2022-11-14T18:00:18.190Z,61.20
2022-11-14T18:03:09.729Z,59.10
2022-11-14T18:06:09.957Z,55.70
2022-11-14T18:09:05.120Z,52.80
2022-11-14T18:11:56.022Z,54.80
2022-11-14T18:14:46.808Z,54.90
2022-11-14T18:17:37.527Z,50.10
2022-11-14T18:20:28.826Z,58.90
2022-11-14T18:23:19.701Z,58.90
2022-11-14T18:26:16.562Z,52.70
2022-11-14T18:29:07.916Z,54.20
2022-11-14T18:32:01.488Z,61.60
2022-11-14T18:34:52.480Z,61.70
2022-11-14T18:37:43.160Z,57.50
2022-11-14T18:40:35.164Z,55.60
2022-11-14T18:43:26.858Z,59.40
2022-11-14T18:46:19.421Z,64.40
2022-11-14T18:49:17.517Z,55.70
2022-11-14T18:52:14.242Z,57.20
2022-11-14T18:55:09.048Z,58.90
2022-11-14T18:58:00.175Z,94.50
2022-11-14T19:00:51.669Z,116.70
2022-11-14T19:03:44.081Z,54.00
2022-11-14T19:06:37.388Z,64.00
2022-11-14T19:09:29.341Z,59.10
2022-11-14T19:12:22.073Z,56.80
2022-11-14T19:15:13.870Z,53.30
2022-11-14T19:18:04.813Z,56.80
2022-11-14T19:21:03.755Z,55.20
2022-11-14T19:23:55.305Z,52.10
2022-11-14T19:26:46.696Z,55.20
2022-11-14T19:29:37.893Z,55.50
2022-11-14T19:32:29.093Z,61.50
2022-11-14T19:35:20.867Z,54.20
2022-11-14T19:38:13.356Z,75.80
2022-11-14T19:41:12.760Z,57.10
2022-11-14T19:44:18.864Z,71.80
2022-11-14T19:47:09.979Z,64.10
2022-11-14T19:50:00.816Z,60.20
2022-11-14T19:52:52.170Z,58.40
2022-11-14T19:55:43.252Z,54.50
2022-11-14T20:01:45.158Z,70.90
2022-11-14T20:04:37.969Z,97.00
2022-11-14T20:07:30.443Z,103.70
2022-11-14T20:10:24.639Z,65.70
2022-11-14T20:13:15.811Z,58.80
2022-11-14T20:16:13.883Z,58.30
2022-11-14T20:19:04.926Z,55.90
2022-11-14T20:21:55.928Z,57.40
2022-11-14T20:24:47.081Z,57.10
2022-11-14T20:27:37.928Z,58.00
2022-11-14T20:30:28.678Z,54.60
2022-11-14T20:33:24.108Z,52.10
2022-11-14T20:36:17.427Z,54.50
2022-11-14T20:39:08.729Z,56.70
2022-11-14T20:42:00.136Z,50.30
2022-11-14T20:44:51.088Z,58.30
2022-11-14T20:47:45.118Z,55.20
2022-11-14T20:50:36.387Z,54.50
2022-11-14T20:53:27.521Z,49.30
2022-11-14T20:56:19.628Z,55.60
2022-11-14T20:59:10.314Z,67.80
2022-11-14T21:02:01.611Z,59.10
2022-11-14T21:04:54.661Z,61.10
2022-11-14T21:07:48.307Z,56.20
2022-11-14T21:10:47.150Z,51.70
2022-11-14T21:14:00.817Z,51.60
2022-11-14T21:16:52.012Z,53.00
2022-11-14T21:19:43.027Z,54.30
2022-11-14T21:22:34.302Z,52.30
2022-11-14T21:25:26.503Z,56.40
2022-11-14T21:28:17.790Z,51.80
2022-11-14T21:31:19.284Z,54.30
2022-11-14T21:34:12.688Z,51.70
2022-11-14T21:37:06.149Z,47.60
2022-11-14T21:39:57.173Z,54.40
2022-11-14T21:42:47.830Z,51.30
2022-11-14T21:45:41.531Z,46.70
2022-11-14T21:48:40.227Z,54.90
2022-11-14T21:51:32.657Z,55.80
2022-11-14T21:54:23.664Z,61.10
2022-11-14T21:57:14.588Z,55.10
2022-11-14T22:00:06.040Z,53.20
2022-11-14T22:03:18.708Z,55.20
2022-11-14T22:06:10.481Z,59.20
2022-11-14T22:09:01.567Z,52.60
2022-11-14T22:11:52.781Z,52.00
2022-11-14T22:14:43.874Z,56.90
2022-11-14T22:17:34.891Z,54.90
2022-11-14T22:20:27.481Z,53.00
2022-11-14T22:23:19.462Z,59.10
2022-11-14T22:26:40.179Z,56.30
2022-11-14T22:29:33.704Z,62.70
2022-11-14T22:32:24.533Z,74.60
2022-11-14T22:35:15.516Z,58.10
2022-11-14T22:38:06.338Z,63.70
2022-11-14T22:41:01.559Z,60.80
2022-11-14T22:43:52.582Z,63.10
2022-11-14T22:46:43.448Z,57.90
2022-11-14T22:49:34.455Z,58.30
2022-11-14T22:52:38.973Z,94.60
2022-11-14T22:55:29.596Z,60.90
2022-11-14T22:58:22.839Z,53.50
2022-11-14T23:01:15.683Z,55.80
2022-11-14T23:04:10.067Z,53.80
2022-11-14T23:07:01.004Z,56.90
2022-11-14T23:09:52.383Z,54.80
2022-11-14T23:12:45.932Z,60.80
2022-11-14T23:15:37.376Z,52.60
2022-11-14T23:18:28.256Z,59.00
2022-11-14T23:21:23.986Z,55.90
2022-11-14T23:24:16.479Z,56.40
2022-11-14T23:27:07.557Z,55.20
2022-11-14T23:29:58.534Z,57.20
2022-11-14T23:32:49.478Z,59.00
2022-11-14T23:35:42.455Z,58.80
2022-11-14T23:38:33.722Z,59.40
2022-11-14T23:41:27.910Z,57.20
2022-11-14T23:44:18.839Z,60.80
2022-11-14T23:47:09.907Z,65.40
2022-11-14T23:50:00.989Z,57.60
2022-11-14T23:52:52.115Z,63.10
2022-11-14T23:55:43.218Z,63.40
2022-11-14T23:58:36.777Z,66.10
